Flight Track Log - Related Links

Times and Time Zones

All times are in EDT time to prevent confusion due to time zone crossing. See the ASQ6041 flight status page for this flight to view local times or setup timezone preferences in your user account.

Time Position Orientation Groundspeed Altitude Reporting Facility
EDT Latitude Longitude Course Direction KTS MPH feet Rate Location/Type
Tue 02:52:41 PM 40.8669 -96.7761 320° Northwest 157 181 36,000  Level Minneapolis Center
Tue 02:53:43 PM 40.8928 -96.8369 299° West 198 228 4,200 -14,226 Descending Minneapolis Center
Tue 02:54:45 PM 40.8769 -96.9344 258° West 272 313 6,600 2,758 Climbing Minneapolis Center
Tue 02:55:00 PM 40.8166 -97.1357 253° West  Level Estimated
Tue 02:55:47 PM 40.8553 -97.0561 257° West 282 325 9,900  Level Minneapolis Center
Tue 02:56:00 PM 40.8069 -97.2614 264° West  Level FlightAware Approximate
Tue 02:56:49 PM 40.8336 -97.1775 257° West 332 382 10,600  Level Minneapolis Center
Tue 02:57:00 PM 40.7951 -97.3868 257° West  Level Estimated
Tue 02:57:51 PM 40.8089 -97.3122 256° West 371 427 12,000  Level Minneapolis Center
Tue 02:58:53 PM 40.7847 -97.4531 257° West 379 436 14,500 2,226 Climbing Minneapolis Center
Tue 02:59:55 PM 40.7603 -97.5828 256° West 369 425 16,600 1,790 Climbing Minneapolis Center
Tue 03:00:57 PM 40.7381 -97.7106 257° West 360 414 18,200 1,355 Climbing Minneapolis Center
Tue 03:01:59 PM 40.7139 -97.8425 256° West 366 421 19,400 1,161 Climbing Minneapolis Center
Tue 03:03:01 PM 40.6886 -97.9806 256° West 380 437 20,600 1,258 Climbing Minneapolis Center
Tue 03:04:03 PM 40.6575 -98.1481 256° West 389 448 22,000 1,210 Climbing Minneapolis Center
Tue 03:05:05 PM 40.6306 -98.2889 256° West 393 452 23,100 1,113 Climbing Minneapolis Center
Tue 03:06:07 PM 40.6053 -98.4300 257° West 394 453 24,300 1,161 Climbing Minneapolis Center
Tue 03:07:09 PM 40.6161 -98.5692 276° West 382 440 25,500 1,122 Climbing Minneapolis Center
Tue 03:08:10 PM 40.6294 -98.7089 277° West 382 440 26,600 1,122 Climbing Minneapolis Center
Tue 03:09:12 PM 40.6411 -98.8492 276° West 382 440 27,800 1,113 Climbing Minneapolis Center
Tue 03:10:14 PM 40.6533 -98.9864 277° West 378 435 28,900 1,113 Climbing Minneapolis Center
Tue 03:11:16 PM 40.6658 -99.1247 277° West 378 435 30,100 1,258 Climbing Minneapolis Center
Tue 03:12:18 PM 40.6797 -99.2911 276° West 379 436 31,500 1,210 Climbing Minneapolis Center
Tue 03:13:20 PM 40.6908 -99.4317 276° West 381 438 32,600 1,113 Climbing Minneapolis Center
Tue 03:14:22 PM 40.7033 -99.5711 277° West 382 440 33,800 1,113 Climbing Minneapolis Center
Tue 03:15:24 PM 40.7147 -99.7089 276° West 379 436 34,900 1,065 Climbing Minneapolis Center
Tue 03:16:26 PM 40.7261 -99.8450 276° West 375 432 36,000 537 Climbing Minneapolis Center
Tue 03:17:27 PM 40.7358 -99.9828 275° West 376 433 36,000  Level Minneapolis Center
Tue 03:18:29 PM 40.7472 -100.1294 276° West 392 451 36,000  Level Minneapolis Center
Tue 03:19:31 PM 40.7592 -100.2800 276° West 403 464 36,000  Level Minneapolis Center
Tue 03:20:33 PM 40.7739 -100.4569 276° West 405 466 36,000  Level Minneapolis Center
Tue 03:21:35 PM 40.7844 -100.6028 276° West 403 464 36,000  Level Minneapolis Center
Tue 03:23:05 PM 40.7567 -100.8242 261° West 423 487 36,000  Level Denver Center
Tue 03:24:19 PM 40.7361 -100.9631 259° West 404 465 36,000  Level Denver Center
Tue 03:25:21 PM 40.7050 -101.1486 258° West 404 465 36,000  Level Denver Center
Tue 03:26:23 PM 40.6808 -101.2875 257° West 406 467 36,000  Level Denver Center
Tue 03:27:25 PM 40.6608 -101.4033 257° West 406 467 36,000  Level Denver Center
Tue 03:28:27 PM 40.6283 -101.5886 257° West 407 468 36,000  Level Denver Center
Tue 03:29:29 PM 40.5986 -101.7506 256° West 407 468 36,000  Level Denver Center
Tue 03:30:31 PM 40.5736 -101.8892 257° West 408 470 36,000  Level Denver Center
Tue 03:31:45 PM 40.5469 -102.0267 256° West 406 467 36,000  Level Denver Center
Tue 03:32:48 PM 40.5133 -102.2106 257° West 405 466 36,000  Level Denver Center
Tue 03:33:49 PM 40.4836 -102.3711 256° West 405 466 36,000  Level Denver Center
Tue 03:34:51 PM 40.4583 -102.5092 257° West 404 465 36,000  Level Denver Center
Tue 03:35:53 PM 40.4281 -102.6689 256° West 405 466 36,000 -532 Level Denver Center
Tue 03:36:55 PM 40.4056 -102.7928 257° West 404 465 34,900 -1,790 Descending Denver Center
Tue 03:37:57 PM 40.3739 -102.9589 256° West 392 451 32,300 -2,208 Descending Denver Center
Tue 03:39:00 PM 40.3481 -103.0994 256° West 398 458 30,300 -1,920 Descending Denver Center
Tue 03:40:02 PM 40.3208 -103.2353 255° West 390 449 28,300 -1,951 Descending Denver Center
Tue 03:41:03 PM 40.2958 -103.3681 256° West 378 435 26,300 -1,951 Descending Denver Center
Tue 03:42:05 PM 40.2686 -103.5025 255° West 382 440 24,300 -1,935 Descending Denver Center
Tue 03:43:07 PM 40.2431 -103.6333 256° West 371 427 22,300 -2,129 Descending Denver Center
Tue 03:44:09 PM 40.2147 -103.7775 256° West 346 398 19,900 -1,790 Descending Denver Center
Tue 03:45:11 PM 40.2028 -103.8906 262° West 315 362 18,600 -1,065 Descending Denver Center
Tue 03:46:13 PM 40.2161 -104.0122 278° West 316 364 17,700 -1,210 Descending Denver Center
Tue 03:47:15 PM 40.2256 -104.1225 276° West 308 354 16,100 -1,935 Descending Denver Center
Tue 03:48:17 PM 40.2361 -104.2306 277° West 302 348 13,700 -1,935 Descending Denver Center
Tue 03:49:19 PM 40.2464 -104.3431 277° West 293 337 12,100 -1,065 Descending Denver Center
Tue 03:50:21 PM 40.2428 -104.4306 267° West 251 289 11,500 -823 Descending Denver Center
Tue 03:51:23 PM 40.2178 -104.5175 249° West 238 274 10,400 -823 Descending Denver Center
Tue 03:52:25 PM 40.1617 -104.5611 211° Southwest 233 268 9,800 -653 Descending Denver Center
Tue 03:53:04 PM 40.1167 -104.5833 201° Southwest 232 267 9,300 -727 Descending Denver TRACON
Tue 03:54:04 PM 40.0667 -104.6333 217° Southwest 236 272 8,600 -850 Descending Denver TRACON
Tue 03:55:04 PM 40.0167 -104.6667 207° Southwest 220 253 7,600 -1,050 Descending Denver TRACON
Tue 03:56:04 PM 39.9667 -104.6833 194° South 171 197 6,500 -947 Descending Denver TRACON
Tue 03:56:58 PM 39.9167 -104.6833 180° South 144 166 5,800 -659 Descending Denver TRACON
Tue 03:57:35 PM 39.9003 -104.6869 190° South 148 170 5,500 -486 Descending Denver Center

Login

Don't have an account? Register now (free) for customized features, flight alerts, and more!